Time;durP1;ratioP1;P1;durP2;ratioP2;P2;SDS_P1;SDS_P2;PMS_P1;PMS_P2;Temp;Humidity;BMP_temperature;BMP_pressure;BME280_temperature;BME280_humidity;BME280_pressure;Samples;Min_cycle;Max_cycle;Signal;HPM_P1;HPM_P2
2022/07/30 00:02:16;;;;;;;9.18;5.47;;;;;;;17.20;100.00;96208.09;5047414;28;20021;-73
2022/07/30 00:04:42;;;;;;;6.88;5.32;;;;;;;17.13;100.00;96205.41;5039020;28;20026;-73
2022/07/30 00:07:08;;;;;;;7.90;5.63;;;;;;;17.09;100.00;96211.34;5044144;28;20051;-73
2022/07/30 00:09:34;;;;;;;9.68;5.53;;;;;;;16.86;100.00;96207.16;5043656;28;20089;-73
2022/07/30 00:11:59;;;;;;;8.52;5.88;;;;;;;16.96;100.00;96209.44;5044707;28;20095;-73
2022/07/30 00:14:25;;;;;;;12.25;5.28;;;;;;;16.99;100.00;96206.41;5045657;28;20029;-73
2022/07/30 00:16:52;;;;;;;10.38;5.55;;;;;;;16.94;100.00;96200.88;5048043;28;20036;-73
2022/07/30 00:19:18;;;;;;;7.82;5.70;;;;;;;16.98;100.00;96199.47;5030462;28;20568;-74
2022/07/30 00:21:44;;;;;;;8.15;5.47;;;;;;;17.00;100.00;96197.44;5047271;28;20066;-73
2022/07/30 00:24:10;;;;;;;9.32;5.75;;;;;;;16.93;100.00;96202.72;5044117;28;20035;-74
2022/07/30 00:26:36;;;;;;;8.18;5.85;;;;;;;16.77;100.00;96207.53;5045266;28;20033;-73
2022/07/30 00:29:03;;;;;;;8.10;5.22;;;;;;;16.77;100.00;96204.88;5046028;28;20102;-73
2022/07/30 00:31:28;;;;;;;9.23;6.22;;;;;;;16.83;100.00;96210.22;5026996;28;20036;-73
2022/07/30 00:33:54;;;;;;;8.70;5.57;;;;;;;16.77;100.00;96208.38;5043209;28;20037;-73
2022/07/30 00:36:21;;;;;;;7.70;5.25;;;;;;;16.71;100.00;96209.97;5027031;28;20025;-73
2022/07/30 00:38:46;;;;;;;8.38;5.57;;;;;;;16.67;100.00;96211.38;5040289;28;20033;-74
2022/07/30 00:41:12;;;;;;;8.57;5.25;;;;;;;16.57;100.00;96213.56;5025769;28;20029;-73
2022/07/30 00:43:38;;;;;;;9.90;6.32;;;;;;;16.64;100.00;96214.41;5028619;28;20037;-73
2022/07/30 00:46:04;;;;;;;12.38;6.00;;;;;;;16.63;100.00;96215.44;5053278;28;20025;-73
2022/07/30 00:48:29;;;;;;;8.13;5.57;;;;;;;16.63;100.00;96214.59;5034336;28;20094;-73
2022/07/30 00:50:55;;;;;;;7.72;5.78;;;;;;;16.64;100.00;96224.22;5052301;28;20123;-73
2022/07/30 00:53:21;;;;;;;8.68;6.43;;;;;;;16.62;100.00;96220.94;5047365;28;20039;-73
2022/07/30 00:55:47;;;;;;;8.15;6.10;;;;;;;16.58;100.00;96219.69;5042612;28;20082;-73
2022/07/30 00:58:13;;;;;;;9.15;6.15;;;;;;;16.55;100.00;96220.09;5026862;28;20041;-73
2022/07/30 01:00:38;;;;;;;8.80;6.68;;;;;;;16.42;100.00;96221.66;5021487;28;20040;-73
2022/07/30 01:03:04;;;;;;;12.85;6.93;;;;;;;16.36;100.00;96224.28;5042806;28;20052;-73
2022/07/30 01:05:30;;;;;;;9.30;6.20;;;;;;;16.37;100.00;96223.28;5038007;28;20437;-73
2022/07/30 01:07:56;;;;;;;8.73;7.18;;;;;;;16.28;100.00;96230.56;5031261;28;20354;-73
2022/07/30 01:10:21;;;;;;;8.32;6.32;;;;;;;16.24;100.00;96221.34;5050650;28;20029;-73
2022/07/30 01:12:47;;;;;;;7.97;6.50;;;;;;;16.19;100.00;96227.22;5046351;28;20045;-73
2022/07/30 01:15:13;;;;;;;11.20;7.63;;;;;;;16.14;100.00;96229.66;5028307;28;20048;-73
2022/07/30 01:17:39;;;;;;;8.30;7.20;;;;;;;16.19;100.00;96221.91;5056558;28;20037;-73
2022/07/30 01:20:10;;;;;;;8.32;6.72;;;;;;;16.11;100.00;96223.94;5053336;28;20098;-73
2022/07/30 01:23:00;;;;;;;13.23;6.38;;;;;;;16.13;100.00;96228.03;5049747;28;20037;-73
2022/07/30 01:25:31;;;;;;;7.68;6.55;;;;;;;16.09;100.00;96233.91;5036980;28;20346;-73
2022/07/30 01:28:05;;;;;;;10.93;7.22;;;;;;;16.12;100.00;96221.06;5056960;28;20431;-73
2022/07/30 01:30:34;;;;;;;11.27;6.88;;;;;;;16.10;100.00;96225.75;5054056;28;20028;-73
2022/07/30 01:33:02;;;;;;;8.73;6.75;;;;;;;16.00;100.00;96225.28;5029393;28;20037;-73
2022/07/30 01:35:31;;;;;;;9.98;7.35;;;;;;;16.07;100.00;96230.63;5019229;28;20037;-73
2022/07/30 01:37:59;;;;;;;12.05;8.07;;;;;;;16.03;100.00;96233.69;5026042;28;20033;-73
2022/07/30 01:40:27;;;;;;;10.77;7.55;;;;;;;16.01;100.00;96233.03;5013287;28;20029;-73
2022/07/30 01:42:57;;;;;;;8.25;7.05;;;;;;;16.06;100.00;96231.63;5010343;28;20826;-73
2022/07/30 01:45:25;;;;;;;10.60;7.40;;;;;;;16.06;100.00;96226.31;5055399;28;20074;-73
2022/07/30 01:47:53;;;;;;;10.35;6.75;;;;;;;15.89;100.00;96226.59;5033584;28;20036;-73
2022/07/30 01:50:21;;;;;;;10.82;7.25;;;;;;;15.91;100.00;96232.56;5045281;28;20697;-73
2022/07/30 01:52:50;;;;;;;11.32;7.75;;;;;;;15.90;100.00;96228.28;5028426;28;20032;-73
2022/07/30 01:55:20;;;;;;;9.43;7.28;;;;;;;15.93;100.00;96227.06;5034332;28;20021;-73
2022/07/30 01:57:47;;;;;;;10.43;7.60;;;;;;;15.92;100.00;96225.41;5033909;28;20510;-73
2022/07/30 02:00:16;;;;;;;8.27;7.10;;;;;;;15.88;100.00;96224.16;5030521;28;20044;-73
2022/07/30 02:02:47;;;;;;;11.10;7.13;;;;;;;15.91;100.00;96231.75;5017703;28;20032;-73
2022/07/30 02:05:13;;;;;;;11.68;6.47;;;;;;;15.87;100.00;96230.50;5028374;28;20540;-73
2022/07/30 02:07:51;;;;;;;13.45;6.93;;;;;;;15.87;100.00;96238.44;5032604;28;20426;-73
2022/07/30 02:10:23;;;;;;;11.63;6.18;;;;;;;15.86;100.00;96234.97;5041345;28;20032;-73
2022/07/30 02:12:52;;;;;;;8.88;6.55;;;;;;;15.92;100.00;96233.38;5025921;28;20067;-73
2022/07/30 02:15:39;;;;;;;9.02;6.75;;;;;;;15.83;100.00;96238.00;5036349;28;20032;-73
2022/07/30 02:18:27;;;;;;;10.48;6.07;;;;;;;15.81;100.00;96236.56;5015201;28;20059;-73
2022/07/30 02:21:00;;;;;;;9.95;6.35;;;;;;;15.78;100.00;96240.41;5049356;28;20531;-73
2022/07/30 02:23:27;;;;;;;9.27;7.55;;;;;;;15.69;100.00;96242.38;5029769;28;20698;-73
2022/07/30 02:25:54;;;;;;;8.25;6.50;;;;;;;15.71;100.00;96232.38;5052356;28;20577;-73
2022/07/30 02:28:23;;;;;;;7.78;6.10;;;;;;;15.70;100.00;96238.72;5033050;28;20028;-73
2022/07/30 02:30:53;;;;;;;11.20;7.43;;;;;;;15.60;100.00;96242.69;5048384;28;20032;-73
2022/07/30 02:33:27;;;;;;;10.23;6.63;;;;;;;15.59;100.00;96243.66;5056056;28;20025;-73
2022/07/30 02:35:55;;;;;;;11.38;6.35;;;;;;;15.54;100.00;96239.75;5049113;28;20033;-73
2022/07/30 02:38:24;;;;;;;8.52;6.43;;;;;;;15.55;100.00;96243.22;5032505;28;20157;-73
2022/07/30 02:40:53;;;;;;;9.50;6.35;;;;;;;15.61;100.00;96234.53;5014126;28;20075;-73
2022/07/30 02:43:20;;;;;;;9.20;6.30;;;;;;;15.59;100.00;96243.66;5026909;28;20033;-72
2022/07/30 02:45:47;;;;;;;9.55;6.53;;;;;;;15.50;100.00;96243.00;5037074;28;20031;-73
2022/07/30 02:48:14;;;;;;;8.80;5.88;;;;;;;15.50;100.00;96240.34;5037566;28;20037;-73
2022/07/30 02:50:41;;;;;;;7.25;5.75;;;;;;;15.47;100.00;96246.03;5040253;28;20086;-73
2022/07/30 02:53:09;;;;;;;9.93;6.60;;;;;;;15.50;100.00;96245.66;5030083;28;20038;-73
2022/07/30 02:55:37;;;;;;;8.88;6.78;;;;;;;15.38;100.00;96245.31;5050356;28;20032;-73
2022/07/30 02:58:05;;;;;;;8.05;5.85;;;;;;;15.31;100.00;96237.28;5040756;28;20033;-72
2022/07/30 03:00:33;;;;;;;7.50;6.00;;;;;;;15.33;100.00;96237.13;5055790;28;20481;-73
2022/07/30 03:03:00;;;;;;;11.77;6.10;;;;;;;15.37;100.00;96248.16;5032543;28;20036;-73
2022/07/30 03:05:26;;;;;;;9.07;5.72;;;;;;;15.33;100.00;96242.41;5026543;28;20440;-73
2022/07/30 03:07:58;;;;;;;8.48;6.65;;;;;;;15.32;100.00;96238.09;5028071;28;20516;-73
2022/07/30 03:10:26;;;;;;;11.23;6.50;;;;;;;15.26;100.00;96241.53;5029043;28;20446;-73
2022/07/30 03:12:52;;;;;;;10.93;6.68;;;;;;;15.28;100.00;96242.16;5026824;28;20045;-73
2022/07/30 03:15:18;;;;;;;8.93;6.60;;;;;;;15.28;100.00;96242.16;5048168;28;20063;-73
2022/07/30 03:17:49;;;;;;;10.38;6.00;;;;;;;15.27;100.00;96245.81;5020917;28;20033;-73
2022/07/30 03:20:19;;;;;;;8.50;6.97;;;;;;;15.20;100.00;96253.69;5022987;28;20039;-73
2022/07/30 03:22:49;;;;;;;7.47;6.70;;;;;;;15.22;100.00;96251.66;5031777;28;20202;-73
2022/07/30 03:25:19;;;;;;;9.40;6.63;;;;;;;15.17;100.00;96256.72;5024607;28;20029;-73
2022/07/30 03:27:46;;;;;;;12.02;7.07;;;;;;;15.15;100.00;96260.56;5041825;28;20029;-73
2022/07/30 03:30:13;;;;;;;11.32;7.45;;;;;;;15.24;100.00;96254.13;5027586;28;20119;-73
2022/07/30 03:32:39;;;;;;;10.02;6.88;;;;;;;15.13;100.00;96262.59;5030807;28;20086;-73
2022/07/30 03:35:07;;;;;;;9.55;7.03;;;;;;;15.19;100.00;96275.91;5026213;28;20521;-73
2022/07/30 03:37:38;;;;;;;9.20;6.78;;;;;;;15.22;100.00;96262.25;5022244;28;20064;-73
2022/07/30 03:40:05;;;;;;;9.38;6.47;;;;;;;15.09;100.00;96278.03;5028050;28;20029;-73
2022/07/30 03:42:33;;;;;;;11.93;7.40;;;;;;;15.09;100.00;96285.97;5022427;28;20058;-73
2022/07/30 03:45:05;;;;;;;10.23;8.05;;;;;;;15.09;100.00;96285.97;5025644;28;20032;-73
2022/07/30 03:47:35;;;;;;;9.80;7.47;;;;;;;15.07;100.00;96285.34;5034755;28;20024;-73
2022/07/30 03:50:02;;;;;;;8.90;6.97;;;;;;;15.12;100.00;96290.88;5034973;28;20060;-73
2022/07/30 03:52:33;;;;;;;12.15;8.45;;;;;;;15.07;100.00;96301.22;5034512;28;20029;-73
2022/07/30 03:55:01;;;;;;;8.95;6.80;;;;;;;15.05;100.00;96306.69;5023209;28;20101;-73
2022/07/30 03:57:46;;;;;;;9.73;6.93;;;;;;;15.01;100.00;96300.13;5047395;28;20051;-73
2022/07/30 04:00:14;;;;;;;9.43;7.07;;;;;;;14.97;100.00;96306.81;5043482;28;20028;-73
2022/07/30 04:02:45;;;;;;;11.88;7.55;;;;;;;15.06;100.00;96310.19;5035560;28;20099;-73
2022/07/30 04:05:26;;;;;;;10.57;7.77;;;;;;;15.02;100.00;96315.03;5037446;28;20502;-73
2022/07/30 04:07:55;;;;;;;10.70;7.20;;;;;;;15.03;100.00;96323.78;5041244;28;20033;-73
2022/07/30 04:10:26;;;;;;;10.93;7.93;;;;;;;15.04;100.00;96325.44;5030134;28;20494;-73
2022/07/30 04:13:11;;;;;;;11.95;7.53;;;;;;;15.08;100.00;96324.88;5043494;28;20422;-73
2022/07/30 04:15:50;;;;;;;11.25;7.55;;;;;;;15.20;100.00;96322.56;5015260;28;20037;-73
2022/07/30 04:18:18;;;;;;;14.10;8.65;;;;;;;15.20;100.00;96335.81;5024792;28;20044;-73
2022/07/30 04:20:48;;;;;;;11.73;8.18;;;;;;;15.26;100.00;96335.09;5030729;28;20068;-73
2022/07/30 04:23:14;;;;;;;9.95;7.75;;;;;;;15.34;100.00;96336.78;5051902;28;20032;-73
2022/07/30 04:25:42;;;;;;;9.25;7.07;;;;;;;15.39;100.00;96336.22;5027823;28;20028;-72
2022/07/30 04:28:10;;;;;;;10.70;7.45;;;;;;;15.48;100.00;96335.09;5046180;28;20040;-73
2022/07/30 04:30:36;;;;;;;8.60;6.70;;;;;;;15.42;100.00;96339.31;5031309;28;20086;-73
2022/07/30 04:33:04;;;;;;;8.60;6.75;;;;;;;15.41;100.00;96344.81;5027377;28;20449;-73
2022/07/30 04:35:52;;;;;;;10.25;7.07;;;;;;;15.41;100.00;96344.81;5019269;28;20171;-73
2022/07/30 04:38:28;;;;;;;9.32;6.82;;;;;;;15.42;100.00;96341.16;5028261;28;20533;-73
2022/07/30 04:40:54;;;;;;;8.55;6.40;;;;;;;15.38;100.00;96351.31;5036818;28;20021;-73
2022/07/30 04:43:20;;;;;;;9.82;6.22;;;;;;;15.36;100.00;96352.50;5013824;28;20028;-74
2022/07/30 04:45:45;;;;;;;8.57;6.78;;;;;;;15.45;100.00;96357.50;5044837;28;20662;-73
2022/07/30 04:48:11;;;;;;;9.30;7.60;;;;;;;15.47;100.00;96355.50;5030478;28;20090;-73
2022/07/30 04:51:33;;;;;;;9.85;7.13;;;;;;;15.41;100.00;96358.06;5037977;28;20952;-73
2022/07/30 04:54:00;;;;;;;9.93;7.65;;;;;;;15.51;100.00;96361.25;5029427;28;20030;-74
2022/07/30 04:56:29;;;;;;;9.68;7.22;;;;;;;15.52;100.00;96357.56;5018453;28;20024;-73
2022/07/30 04:58:57;;;;;;;10.45;7.10;;;;;;;15.56;100.00;96353.56;5045758;28;20083;-73
2022/07/30 05:01:30;;;;;;;7.65;6.65;;;;;;;15.60;100.00;96356.66;5008732;28;20029;-74
2022/07/30 05:03:57;;;;;;;9.88;7.45;;;;;;;15.67;100.00;96365.53;5043052;28;20120;-73
2022/07/30 05:06:24;;;;;;;8.52;6.45;;;;;;;15.70;100.00;96365.97;5019643;28;20029;-73
2022/07/30 05:08:51;;;;;;;9.02;6.88;;;;;;;15.72;100.00;96371.06;5027379;28;20124;-73
2022/07/30 05:11:17;;;;;;;10.68;6.57;;;;;;;15.87;100.00;96371.03;5021731;28;20029;-73
2022/07/30 05:13:44;;;;;;;11.10;6.50;;;;;;;15.90;100.00;96366.19;5025356;28;20098;-73
2022/07/30 05:16:12;;;;;;;12.50;7.35;;;;;;;15.99;100.00;96361.56;5025424;28;20064;-73
2022/07/30 05:18:38;;;;;;;11.93;7.10;;;;;;;16.09;100.00;96362.06;5021729;28;20080;-73
2022/07/30 05:21:04;;;;;;;8.05;6.97;;;;;;;16.26;100.00;96366.09;5017433;28;20541;-73
2022/07/30 05:23:35;;;;;;;10.45;6.63;;;;;;;16.46;100.00;96358.31;5051460;28;20060;-74
2022/07/30 05:26:23;;;;;;;8.32;6.95;;;;;;;16.59;100.00;96360.22;5041978;28;20524;-73
2022/07/30 05:28:51;;;;;;;7.45;6.07;;;;;;;16.65;100.00;96354.13;5037812;28;20033;-73
2022/07/30 05:31:19;;;;;;;10.90;8.10;;;;;;;16.78;100.00;96361.41;5027133;28;20108;-74
2022/07/30 05:33:52;;;;;;;;;;;;;;;16.91;100.00;96363.31;5024093;28;20102;-74
2022/07/30 05:36:24;;;;;;;14.32;7.10;;;;;;;17.05;100.00;96362.38;5033689;28;19920;-73
2022/07/30 05:38:50;;;;;;;14.35;7.65;;;;;;;17.06;100.00;96360.53;5027865;28;20064;-73
2022/07/30 05:41:26;;;;;;;10.13;7.15;;;;;;;17.22;100.00;96356.72;5038716;28;20561;-73
2022/07/30 05:44:15;;;;;;;9.25;6.10;;;;;;;17.29;100.00;96354.91;5046102;28;20534;-73
2022/07/30 05:46:41;;;;;;;12.75;7.55;;;;;;;17.41;100.00;96359.47;5023510;28;20048;-73
2022/07/30 05:49:07;;;;;;;10.30;6.90;;;;;;;17.62;100.00;96355.84;5039671;28;20040;-73
2022/07/30 05:51:33;;;;;;;8.88;6.10;;;;;;;17.96;100.00;96351.44;5048215;28;20033;-73
2022/07/30 05:53:59;;;;;;;12.20;7.32;;;;;;;18.07;100.00;96350.84;5051954;28;20044;-73
2022/07/30 05:56:43;;;;;;;10.88;6.18;;;;;;;18.20;100.00;96350.03;5048554;28;20051;-74
2022/07/30 05:59:27;;;;;;;8.48;6.13;;;;;;;18.40;100.00;96352.69;5049048;28;20044;-73
2022/07/30 06:02:09;;;;;;;8.57;6.63;;;;;;;18.79;100.00;96354.53;5050455;28;20041;-73
2022/07/30 06:04:53;;;;;;;9.45;6.47;;;;;;;18.75;100.00;96356.00;5038334;28;20064;-73
2022/07/30 06:07:19;;;;;;;10.35;6.70;;;;;;;18.95;100.00;96360.47;5034850;28;20039;-73
2022/07/30 06:09:45;;;;;;;9.98;6.63;;;;;;;19.03;100.00;96362.88;5034579;28;20658;-73
2022/07/30 06:12:12;;;;;;;11.57;7.00;;;;;;;19.22;100.00;96366.53;5027514;28;20025;-73
2022/07/30 06:14:38;;;;;;;10.23;5.97;;;;;;;19.63;100.00;96363.50;5015351;28;20493;-73
2022/07/30 06:17:06;;;;;;;8.90;5.93;;;;;;;19.03;100.00;96361.03;5032413;28;20044;-74
2022/07/30 06:19:52;;;;;;;7.75;5.50;;;;;;;19.13;100.00;96367.78;5034534;28;20043;-74
2022/07/30 06:22:18;;;;;;;7.97;5.80;;;;;;;19.29;100.00;96372.66;5024624;28;20032;-73
2022/07/30 06:24:47;;;;;;;9.35;6.53;;;;;;;19.82;100.00;96368.94;5035922;28;20033;-74
2022/07/30 06:27:19;;;;;;;8.57;5.90;;;;;;;19.99;100.00;96365.56;5030917;28;20037;-74
2022/07/30 06:29:45;;;;;;;10.48;5.95;;;;;;;19.98;100.00;96373.78;5047329;28;20025;-74
2022/07/30 06:32:12;;;;;;;8.88;6.18;;;;;;;20.35;100.00;96364.06;5044292;28;20036;-74
2022/07/30 06:34:38;;;;;;;8.15;5.47;;;;;;;20.60;100.00;96352.63;5026262;28;20044;-74
2022/07/30 06:37:04;;;;;;;8.25;5.35;;;;;;;20.65;100.00;96364.25;5051744;28;20047;-74
2022/07/30 06:39:32;;;;;;;7.63;5.40;;;;;;;20.19;100.00;96364.63;5049391;28;20040;-74
2022/07/30 06:41:57;;;;;;;8.68;5.75;;;;;;;20.64;100.00;96359.16;5042843;28;20041;-74
2022/07/30 06:44:28;;;;;;;9.98;5.47;;;;;;;21.01;100.00;96367.22;5024508;28;20029;-74
2022/07/30 06:47:03;;;;;;;9.55;5.65;;;;;;;20.83;100.00;96363.50;5042615;28;20340;-74
2022/07/30 06:49:32;;;;;;;11.85;5.63;;;;;;;21.51;100.00;96362.56;5032574;28;20056;-73
2022/07/30 06:51:59;;;;;;;9.70;5.40;;;;;;;21.55;100.00;96360.25;5024736;28;20044;-73
2022/07/30 06:54:25;;;;;;;7.95;5.18;;;;;;;21.67;100.00;96371.84;5047037;28;20089;-73
2022/07/30 06:56:57;;;;;;;8.32;5.25;;;;;;;21.29;100.00;96374.72;5045196;28;20047;-74
2022/07/30 06:59:23;;;;;;;10.00;6.18;;;;;;;21.51;100.00;96367.09;5042196;28;20029;-73
2022/07/30 07:02:07;;;;;;;6.82;4.68;;;;;;;22.04;100.00;96367.22;5053968;28;20052;-74
2022/07/30 07:04:47;;;;;;;8.95;5.47;;;;;;;21.57;100.00;96374.22;5029177;28;20108;-73
2022/07/30 07:07:13;;;;;;;8.00;5.03;;;;;;;21.96;100.00;96372.06;5050279;28;20716;-74
2022/07/30 07:09:40;;;;;;;8.25;5.20;;;;;;;22.21;99.25;96370.06;5013456;28;20033;-74
2022/07/30 07:12:26;;;;;;;9.35;4.80;;;;;;;22.76;97.41;96374.34;5036536;28;20047;-74
2022/07/30 07:14:52;;;;;;;8.13;5.10;;;;;;;22.76;95.49;96372.47;5028523;28;20041;-74
2022/07/30 07:17:18;;;;;;;8.82;6.38;;;;;;;23.06;92.41;96376.94;5050310;28;20032;-74
2022/07/30 07:19:56;;;;;;;7.60;4.78;;;;;;;22.63;94.89;96378.06;5044254;28;20061;-74
2022/07/30 07:22:23;;;;;;;11.05;5.40;;;;;;;23.51;90.03;96385.16;5032912;28;20037;-74
2022/07/30 07:24:48;;;;;;;9.82;5.88;;;;;;;23.91;83.17;96375.47;5052663;28;20031;-74
2022/07/30 07:27:18;;;;;;;13.55;5.07;;;;;;;24.14;83.24;96380.72;5035019;28;20497;-74
2022/07/30 07:29:47;;;;;;;9.02;4.18;;;;;;;23.91;83.86;96378.97;5029535;28;20036;-74
2022/07/30 07:32:13;;;;;;;7.88;4.57;;;;;;;22.81;88.92;96374.47;5042938;28;20040;-74
2022/07/30 07:34:39;;;;;;;7.50;4.53;;;;;;;22.28;94.34;96391.41;5026604;28;20440;-74
2022/07/30 07:37:05;;;;;;;8.15;3.80;;;;;;;21.78;99.24;96392.47;5022173;28;20116;-74
2022/07/30 07:39:30;;;;;;;6.22;4.20;;;;;;;21.81;100.00;96393.91;5025308;28;20043;-74
2022/07/30 07:41:56;;;;;;;7.03;4.45;;;;;;;22.18;98.90;96388.47;5045673;28;20037;-74
2022/07/30 07:44:24;;;;;;;7.13;4.75;;;;;;;23.02;94.07;96383.81;5021478;28;20032;-74
2022/07/30 07:46:50;;;;;;;10.35;5.13;;;;;;;23.37;89.58;96386.44;5025377;28;20024;-74
2022/07/30 07:49:15;;;;;;;8.23;4.78;;;;;;;23.87;84.74;96377.81;5052199;28;20393;-74
2022/07/30 07:51:45;;;;;;;9.00;4.55;;;;;;;24.71;75.64;96379.81;5027652;28;20045;-75
2022/07/30 07:54:13;;;;;;;10.40;4.88;;;;;;;23.39;83.19;96391.59;5028052;28;20094;-74
2022/07/30 07:56:39;;;;;;;6.35;4.15;;;;;;;23.57;87.51;96396.78;5027758;28;20075;-74
2022/07/30 07:59:07;;;;;;;7.28;3.15;;;;;;;24.19;75.61;96385.38;5026648;28;20029;-74
2022/07/30 08:01:33;;;;;;;6.20;3.70;;;;;;;25.41;72.85;96375.72;5045024;28;20033;-74
2022/07/30 08:04:22;;;;;;;8.32;4.00;;;;;;;24.73;72.23;96371.53;5031175;28;20043;-74
2022/07/30 08:07:06;;;;;;;8.90;3.58;;;;;;;24.51;71.13;96380.31;5052516;28;20118;-74
2022/07/30 08:09:58;;;;;;;8.13;3.58;;;;;;;24.32;71.08;96386.97;5028861;28;20040;-74
2022/07/30 08:12:43;;;;;;;8.48;3.13;;;;;;;25.64;63.63;96386.25;5026813;28;20049;-75
2022/07/30 08:15:47;;;;;;;4.07;2.40;;;;;;;25.34;64.00;96381.31;4981490;28;20054;-74
2022/07/30 08:18:34;;;;;;;8.18;3.45;;;;;;;25.91;58.12;96374.75;5030357;28;20048;-74
2022/07/30 08:21:26;;;;;;;6.10;3.05;;;;;;;25.13;61.31;96384.78;5032489;28;20869;-74
2022/07/30 08:23:52;;;;;;;4.82;3.20;;;;;;;25.48;57.45;96379.06;5043442;28;20029;-74
2022/07/30 08:26:18;;;;;;;5.38;3.17;;;;;;;26.14;56.11;96381.72;5042981;28;20725;-74
2022/07/30 08:28:44;;;;;;;9.15;3.17;;;;;;;26.78;53.10;96375.56;5042385;28;20436;-74
2022/07/30 08:31:12;;;;;;;4.45;2.85;;;;;;;26.00;55.77;96378.63;5023438;28;20059;-74
2022/07/30 08:33:38;;;;;;;5.05;2.97;;;;;;;25.16;59.51;96381.59;5023532;28;20029;-74
2022/07/30 08:36:05;;;;;;;7.35;3.30;;;;;;;26.17;55.80;96383.91;5025209;28;20029;-74
2022/07/30 08:38:31;;;;;;;7.05;3.05;;;;;;;26.31;54.95;96384.31;5026730;28;20025;-74
2022/07/30 08:40:57;;;;;;;7.07;2.85;;;;;;;26.64;50.04;96377.06;5021083;28;20037;-74
2022/07/30 08:43:25;;;;;;;7.07;2.72;;;;;;;25.85;54.04;96387.38;5018323;28;20036;-74
2022/07/30 08:45:55;;;;;;;5.47;3.13;;;;;;;26.63;52.34;96391.66;5027641;28;20029;-74
2022/07/30 08:48:42;;;;;;;9.35;3.05;;;;;;;26.86;48.90;96383.19;5021579;28;20049;-74
2022/07/30 08:51:08;;;;;;;4.18;2.85;;;;;;;26.51;48.91;96384.53;5045325;28;20041;-76
2022/07/30 08:53:55;;;;;;;6.80;3.25;;;;;;;26.79;48.70;96385.28;5040508;28;21891;-74
2022/07/30 08:56:21;;;;;;;5.65;2.40;;;;;;;27.35;43.99;96387.56;5021451;28;20178;-75
2022/07/30 08:58:47;;;;;;;7.07;2.90;;;;;;;27.59;46.60;96398.75;5023778;28;20506;-74
2022/07/30 09:01:15;;;;;;;5.63;2.75;;;;;;;27.26;45.25;96390.75;5051586;28;20090;-75
2022/07/30 09:03:41;;;;;;;4.95;2.40;;;;;;;27.60;44.60;96397.66;5012873;28;20060;-74
2022/07/30 09:06:07;;;;;;;5.50;2.38;;;;;;;28.58;42.90;96395.00;5041229;28;20064;-75
2022/07/30 09:08:33;;;;;;;3.70;1.85;;;;;;;27.73;46.47;96391.75;5022853;28;20293;-75
2022/07/30 09:10:59;;;;;;;6.47;2.53;;;;;;;27.06;45.19;96379.78;5037507;28;20431;-74
2022/07/30 09:13:34;;;;;;;3.83;2.25;;;;;;;26.29;43.13;96394.53;5024902;28;20028;-74
2022/07/30 09:16:01;;;;;;;5.00;2.33;;;;;;;26.15;42.76;96385.22;5025200;28;20055;-76
2022/07/30 09:18:28;;;;;;;4.60;1.95;;;;;;;26.79;40.71;96387.97;5030965;28;20032;-76
2022/07/30 09:20:54;;;;;;;5.18;2.10;;;;;;;26.83;38.35;96386.41;5027833;28;20551;-74
2022/07/30 09:23:20;;;;;;;3.78;1.88;;;;;;;28.04;35.59;96394.63;5047519;28;20131;-75
2022/07/30 09:26:09;;;;;;;2.58;1.58;;;;;;;29.25;34.33;96386.84;5037123;28;20124;-75
2022/07/30 09:29:13;;;;;;;2.63;1.75;;;;;;;28.55;35.44;96394.72;4995136;28;20041;-77
2022/07/30 09:32:01;;;;;;;2.90;1.90;;;;;;;27.78;36.49;96407.25;5048767;28;20052;-77
2022/07/30 09:34:46;;;;;;;5.18;1.90;;;;;;;27.79;37.67;96398.84;5031636;28;20464;-77
2022/07/30 09:37:56;;;;;;;5.57;2.15;;;;;;;27.02;38.95;96402.97;5029293;28;20113;-77
2022/07/30 09:40:49;;;;;;;4.28;1.80;;;;;;;27.25;37.24;96391.81;5026423;28;20040;-77
2022/07/30 09:43:49;;;;;;;5.60;2.08;;;;;;;26.95;37.89;96399.69;5036153;28;20041;-77
2022/07/30 09:46:45;;;;;;;4.22;1.85;;;;;;;27.89;36.06;96393.47;5051659;28;20071;-77
2022/07/30 09:49:18;;;;;;;4.95;1.98;;;;;;;28.49;35.52;96401.22;5042300;28;20037;-77
2022/07/30 09:51:44;;;;;;;3.80;1.80;;;;;;;27.12;36.14;96404.94;5027266;28;20047;-78
2022/07/30 09:54:10;;;;;;;6.90;2.97;;;;;;;27.78;35.81;96399.13;5030923;28;20021;-79
2022/07/30 09:56:36;;;;;;;7.22;3.40;;;;;;;27.95;34.35;96395.13;5051449;28;20063;-77
2022/07/30 09:59:02;;;;;;;3.03;1.83;;;;;;;27.56;35.78;96399.25;5052371;28;20028;-77
2022/07/30 10:01:49;;;;;;;7.32;2.88;;;;;;;28.75;33.73;96400.13;5041266;28;20043;-75
2022/07/30 10:04:33;;;;;;;4.95;2.38;;;;;;;28.04;34.67;96405.44;5059202;28;20075;-77
2022/07/30 10:07:17;;;;;;;3.95;2.00;;;;;;;29.01;33.98;96398.25;5026117;28;20032;-77
2022/07/30 10:09:45;;;;;;;3.90;2.38;;;;;;;29.05;33.68;96404.75;5032390;28;20040;-77
2022/07/30 10:12:12;;;;;;;6.90;1.95;;;;;;;27.11;35.62;96409.53;5033468;28;20017;-77
2022/07/30 10:14:45;;;;;;;4.35;2.05;;;;;;;27.62;33.61;96409.84;5034830;28;20036;-76
2022/07/30 10:17:13;;;;;;;5.22;2.03;;;;;;;28.88;32.80;96405.00;5035156;28;20036;-76
2022/07/30 10:19:42;;;;;;;3.78;1.75;;;;;;;29.97;31.93;96392.81;5035506;28;20815;-78
2022/07/30 10:22:27;;;;;;;7.07;2.53;;;;;;;29.24;33.16;96386.03;5048475;28;20055;-77
2022/07/30 10:25:12;;;;;;;5.13;2.47;;;;;;;28.70;32.65;96402.03;5046472;28;20051;-78
2022/07/30 10:27:58;;;;;;;4.88;2.13;;;;;;;29.33;31.52;96389.78;5032942;28;20095;-78
2022/07/30 10:30:30;;;;;;;2.63;1.80;;;;;;;27.96;34.22;96399.44;5040673;28;20618;-77
2022/07/30 10:32:57;;;;;;;5.07;2.42;;;;;;;28.43;32.82;96398.47;5044647;28;20490;-77
2022/07/30 10:35:23;;;;;;;9.00;4.53;;;;;;;28.65;33.47;96397.44;5045338;28;20079;-77
2022/07/30 10:37:50;;;;;;;12.32;6.18;;;;;;;28.60;32.74;96400.13;5014616;28;20033;-78
2022/07/30 10:40:36;;;;;;;5.82;2.95;;;;;;;29.98;31.39;96389.00;5049219;28;20031;-76
2022/07/30 10:43:34;;;;;;;5.93;2.20;;;;;;;28.36;33.08;96387.09;5032437;28;20431;-78
2022/07/30 10:46:21;;;;;;;5.35;1.88;;;;;;;28.20;33.62;96394.38;5030825;28;20525;-76
2022/07/30 10:48:47;;;;;;;4.68;2.05;;;;;;;27.74;34.20;96406.91;5030431;28;20037;-78
2022/07/30 10:51:13;;;;;;;5.28;2.50;;;;;;;27.29;35.83;96404.78;5038231;28;20351;-77
2022/07/30 10:53:39;;;;;;;4.43;2.10;;;;;;;27.81;34.08;96396.72;5031454;28;20842;-78
2022/07/30 10:56:18;;;;;;;4.82;2.15;;;;;;;27.54;34.51;96396.84;5034369;28;20033;-78
2022/07/30 10:58:58;;;;;;;6.90;2.50;;;;;;;28.01;34.22;96392.44;5033941;28;20482;-75
2022/07/30 11:01:24;;;;;;;4.93;2.63;;;;;;;27.91;34.25;96398.63;5032509;28;20032;-78
2022/07/30 11:04:18;;;;;;;4.88;2.20;;;;;;;28.84;32.85;96401.22;5051524;28;20104;-78
2022/07/30 11:06:44;;;;;;;6.38;3.53;;;;;;;28.61;33.53;96397.16;5054423;28;20087;-78
2022/07/30 11:09:39;;;;;;;11.35;6.75;;;;;;;28.15;34.47;96401.66;5055076;28;20017;-78
2022/07/30 11:12:06;;;;;;;4.88;2.88;;;;;;;27.66;34.69;96402.00;5028118;28;20052;-75
2022/07/30 11:14:47;;;;;;;6.78;2.58;;;;;;;27.98;34.13;96401.09;5036447;28;20067;-80
2022/07/30 11:17:17;;;;;;;3.88;1.92;;;;;;;28.84;33.49;96398.53;5049338;28;20036;-74
2022/07/30 11:20:01;;;;;;;4.57;2.20;;;;;;;27.40;35.23;96393.81;5043682;28;20645;-73
2022/07/30 11:22:30;;;;;;;7.13;2.08;;;;;;;26.82;35.95;96386.66;5039480;28;20040;-71
2022/07/30 11:24:56;;;;;;;5.22;2.10;;;;;;;27.80;34.05;96387.00;5042873;28;20021;-73
2022/07/30 11:27:46;;;;;;;4.47;2.42;;;;;;;27.87;34.18;96387.53;5010121;28;20141;-73
2022/07/30 11:30:15;;;;;;;4.45;2.50;;;;;;;29.29;33.13;96382.50;5008973;28;20034;-73
2022/07/30 11:32:51;;;;;;;5.68;2.65;;;;;;;29.42;32.81;96391.94;5026851;28;20025;-73
2022/07/30 11:35:24;;;;;;;6.78;2.28;;;;;;;29.27;33.15;96388.19;5024797;28;20060;-73
2022/07/30 11:37:58;;;;;;;4.35;2.10;;;;;;;29.70;32.44;96387.81;5027681;28;20791;-73
2022/07/30 11:40:26;;;;;;;5.65;2.28;;;;;;;29.70;32.37;96374.25;5024406;28;20452;-73
2022/07/30 11:43:34;;;;;;;16.77;12.07;;;;;;;30.01;32.21;96373.03;5022097;28;20506;-72
2022/07/30 11:46:16;;;;;;;64.22;52.50;;;;;;;30.15;31.50;96378.63;5030318;28;20071;-73
2022/07/30 11:48:55;;;;;;;9.18;5.03;;;;;;;29.70;31.27;96371.53;5022711;28;20029;-73